sensor_id;sensor_type;location;lat;lon;timestamp;P1;durP1;ratioP1;P2;durP2;ratioP2
63817;SDS011;53093;55.092;73.476;2022-10-26T00:01:18;3.15;;;2.10;;
63817;SDS011;53093;55.092;73.476;2022-10-26T00:03:47;6.07;;;2.42;;
63817;SDS011;53093;55.092;73.476;2022-10-26T00:06:15;4.40;;;2.53;;
63817;SDS011;53093;55.092;73.476;2022-10-26T00:08:43;5.25;;;3.10;;
63817;SDS011;53093;55.092;73.476;2022-10-26T00:11:20;6.72;;;3.00;;
63817;SDS011;53093;55.092;73.476;2022-10-26T00:13:47;5.93;;;3.05;;
63817;SDS011;53093;55.092;73.476;2022-10-26T00:16:19;5.85;;;3.15;;
63817;SDS011;53093;55.092;73.476;2022-10-26T00:18:53;5.07;;;2.95;;
63817;SDS011;53093;55.092;73.476;2022-10-26T00:21:20;5.80;;;2.58;;
63817;SDS011;53093;55.092;73.476;2022-10-26T00:23:47;5.40;;;2.72;;
63817;SDS011;53093;55.092;73.476;2022-10-26T00:26:19;5.65;;;2.83;;
63817;SDS011;53093;55.092;73.476;2022-10-26T00:28:46;5.65;;;2.92;;
63817;SDS011;53093;55.092;73.476;2022-10-26T00:31:14;6.35;;;2.50;;
63817;SDS011;53093;55.092;73.476;2022-10-26T00:33:52;5.25;;;2.85;;
63817;SDS011;53093;55.092;73.476;2022-10-26T00:36:19;3.50;;;2.30;;
63817;SDS011;53093;55.092;73.476;2022-10-26T00:38:54;3.08;;;2.17;;
63817;SDS011;53093;55.092;73.476;2022-10-26T00:41:25;3.45;;;2.05;;
63817;SDS011;53093;55.092;73.476;2022-10-26T00:43:52;4.28;;;1.67;;
63817;SDS011;53093;55.092;73.476;2022-10-26T00:46:30;5.07;;;1.90;;
63817;SDS011;53093;55.092;73.476;2022-10-26T00:48:59;3.42;;;2.00;;
63817;SDS011;53093;55.092;73.476;2022-10-26T00:51:32;3.72;;;1.95;;
63817;SDS011;53093;55.092;73.476;2022-10-26T00:54:02;2.15;;;1.67;;
63817;SDS011;53093;55.092;73.476;2022-10-26T00:56:34;4.22;;;1.95;;
63817;SDS011;53093;55.092;73.476;2022-10-26T00:59:11;4.55;;;1.90;;
63817;SDS011;53093;55.092;73.476;2022-10-26T01:01:40;2.95;;;2.03;;
63817;SDS011;53093;55.092;73.476;2022-10-26T01:04:07;3.65;;;2.10;;
63817;SDS011;53093;55.092;73.476;2022-10-26T01:06:35;5.90;;;2.13;;
63817;SDS011;53093;55.092;73.476;2022-10-26T01:09:03;3.80;;;1.85;;
63817;SDS011;53093;55.092;73.476;2022-10-26T01:11:41;3.13;;;1.90;;
63817;SDS011;53093;55.092;73.476;2022-10-26T01:14:12;4.13;;;1.80;;
63817;SDS011;53093;55.092;73.476;2022-10-26T01:16:55;3.00;;;1.92;;
63817;SDS011;53093;55.092;73.476;2022-10-26T01:22:15;2.30;;;1.83;;
63817;SDS011;53093;55.092;73.476;2022-10-26T01:24:51;5.40;;;1.90;;
63817;SDS011;53093;55.092;73.476;2022-10-26T01:27:29;4.53;;;2.00;;
63817;SDS011;53093;55.092;73.476;2022-10-26T01:32:56;2.85;;;1.60;;
63817;SDS011;53093;55.092;73.476;2022-10-26T01:35:28;3.35;;;1.80;;
63817;SDS011;53093;55.092;73.476;2022-10-26T01:40:30;3.63;;;1.90;;
63817;SDS011;53093;55.092;73.476;2022-10-26T01:42:59;6.28;;;3.13;;
63817;SDS011;53093;55.092;73.476;2022-10-26T01:45:28;5.32;;;2.15;;
63817;SDS011;53093;55.092;73.476;2022-10-26T01:48:03;4.38;;;2.00;;
63817;SDS011;53093;55.092;73.476;2022-10-26T01:50:30;5.45;;;2.13;;
63817;SDS011;53093;55.092;73.476;2022-10-26T01:52:58;4.65;;;2.17;;
63817;SDS011;53093;55.092;73.476;2022-10-26T02:01:02;6.00;;;2.63;;
63817;SDS011;53093;55.092;73.476;2022-10-26T02:03:57;6.18;;;2.00;;
63817;SDS011;53093;55.092;73.476;2022-10-26T02:09:06;8.70;;;2.40;;
63817;SDS011;53093;55.092;73.476;2022-10-26T02:11:42;6.53;;;2.08;;
63817;SDS011;53093;55.092;73.476;2022-10-26T02:17:09;9.18;;;2.45;;
63817;SDS011;53093;55.092;73.476;2022-10-26T02:19:50;7.30;;;1.90;;
63817;SDS011;53093;55.092;73.476;2022-10-26T02:22:27;4.82;;;2.03;;
63817;SDS011;53093;55.092;73.476;2022-10-26T02:24:55;5.57;;;2.15;;
63817;SDS011;53093;55.092;73.476;2022-10-26T02:27:27;6.28;;;2.40;;
63817;SDS011;53093;55.092;73.476;2022-10-26T02:29:55;6.72;;;2.40;;
63817;SDS011;53093;55.092;73.476;2022-10-26T02:32:23;4.47;;;2.17;;
63817;SDS011;53093;55.092;73.476;2022-10-26T02:34:51;7.78;;;2.33;;
63817;SDS011;53093;55.092;73.476;2022-10-26T02:37:19;4.82;;;2.40;;
63817;SDS011;53093;55.092;73.476;2022-10-26T02:39:52;5.80;;;2.45;;
63817;SDS011;53093;55.092;73.476;2022-10-26T02:42:21;6.20;;;2.22;;
63817;SDS011;53093;55.092;73.476;2022-10-26T02:45:02;4.78;;;2.15;;
63817;SDS011;53093;55.092;73.476;2022-10-26T02:47:30;5.07;;;2.30;;
63817;SDS011;53093;55.092;73.476;2022-10-26T02:49:58;4.65;;;2.22;;
63817;SDS011;53093;55.092;73.476;2022-10-26T02:52:37;7.03;;;2.47;;
63817;SDS011;53093;55.092;73.476;2022-10-26T02:55:14;10.30;;;2.53;;
63817;SDS011;53093;55.092;73.476;2022-10-26T02:57:44;19.05;;;7.63;;
63817;SDS011;53093;55.092;73.476;2022-10-26T03:00:14;9.48;;;3.92;;
63817;SDS011;53093;55.092;73.476;2022-10-26T03:02:41;8.82;;;2.88;;
63817;SDS011;53093;55.092;73.476;2022-10-26T03:07:35;7.22;;;2.80;;
63817;SDS011;53093;55.092;73.476;2022-10-26T03:10:02;7.70;;;2.85;;
63817;SDS011;53093;55.092;73.476;2022-10-26T03:12:29;8.95;;;2.75;;
63817;SDS011;53093;55.092;73.476;2022-10-26T03:15:06;11.75;;;3.10;;
63817;SDS011;53093;55.092;73.476;2022-10-26T03:17:33;8.63;;;2.65;;
63817;SDS011;53093;55.092;73.476;2022-10-26T03:20:00;7.53;;;2.58;;
63817;SDS011;53093;55.092;73.476;2022-10-26T03:22:37;6.78;;;2.75;;
63817;SDS011;53093;55.092;73.476;2022-10-26T03:25:04;10.93;;;3.08;;
63817;SDS011;53093;55.092;73.476;2022-10-26T03:27:31;8.90;;;3.00;;
63817;SDS011;53093;55.092;73.476;2022-10-26T03:29:58;7.88;;;3.05;;
63817;SDS011;53093;55.092;73.476;2022-10-26T03:32:25;7.38;;;2.83;;
63817;SDS011;53093;55.092;73.476;2022-10-26T03:34:52;9.40;;;3.25;;
63817;SDS011;53093;55.092;73.476;2022-10-26T03:37:18;9.63;;;3.65;;
63817;SDS011;53093;55.092;73.476;2022-10-26T03:39:48;8.60;;;2.70;;
63817;SDS011;53093;55.092;73.476;2022-10-26T03:42:15;5.40;;;2.38;;
63817;SDS011;53093;55.092;73.476;2022-10-26T03:44:42;9.15;;;2.95;;
63817;SDS011;53093;55.092;73.476;2022-10-26T03:47:09;6.28;;;2.60;;
63817;SDS011;53093;55.092;73.476;2022-10-26T03:49:36;6.80;;;2.30;;
63817;SDS011;53093;55.092;73.476;2022-10-26T03:52:03;8.07;;;3.38;;
63817;SDS011;53093;55.092;73.476;2022-10-26T03:54:30;10.60;;;3.05;;
63817;SDS011;53093;55.092;73.476;2022-10-26T03:56:56;10.30;;;2.88;;
63817;SDS011;53093;55.092;73.476;2022-10-26T03:59:23;9.68;;;3.58;;
63817;SDS011;53093;55.092;73.476;2022-10-26T04:01:56;9.95;;;3.22;;
63817;SDS011;53093;55.092;73.476;2022-10-26T04:04:23;8.07;;;3.53;;
63817;SDS011;53093;55.092;73.476;2022-10-26T04:06:50;7.57;;;3.10;;
63817;SDS011;53093;55.092;73.476;2022-10-26T04:09:17;8.68;;;3.35;;
63817;SDS011;53093;55.092;73.476;2022-10-26T04:11:44;7.25;;;3.20;;
63817;SDS011;53093;55.092;73.476;2022-10-26T04:14:11;9.48;;;3.15;;
63817;SDS011;53093;55.092;73.476;2022-10-26T04:16:38;18.67;;;9.75;;
63817;SDS011;53093;55.092;73.476;2022-10-26T04:19:05;14.52;;;7.75;;
63817;SDS011;53093;55.092;73.476;2022-10-26T04:21:32;8.48;;;3.33;;
63817;SDS011;53093;55.092;73.476;2022-10-26T04:24:05;9.07;;;3.78;;
63817;SDS011;53093;55.092;73.476;2022-10-26T04:26:32;7.53;;;4.00;;
63817;SDS011;53093;55.092;73.476;2022-10-26T04:28:59;7.85;;;3.90;;
63817;SDS011;53093;55.092;73.476;2022-10-26T04:31:26;7.88;;;3.60;;
63817;SDS011;53093;55.092;73.476;2022-10-26T04:34:04;6.68;;;3.15;;
63817;SDS011;53093;55.092;73.476;2022-10-26T04:36:31;6.93;;;3.60;;
63817;SDS011;53093;55.092;73.476;2022-10-26T04:38:57;7.97;;;3.85;;
63817;SDS011;53093;55.092;73.476;2022-10-26T04:41:24;7.28;;;3.33;;
63817;SDS011;53093;55.092;73.476;2022-10-26T04:43:51;17.00;;;3.35;;
63817;SDS011;53093;55.092;73.476;2022-10-26T04:46:18;10.23;;;3.30;;
63817;SDS011;53093;55.092;73.476;2022-10-26T04:48:50;7.80;;;3.50;;
63817;SDS011;53093;55.092;73.476;2022-10-26T04:51:22;6.82;;;3.30;;
63817;SDS011;53093;55.092;73.476;2022-10-26T04:53:49;8.88;;;4.10;;
63817;SDS011;53093;55.092;73.476;2022-10-26T04:56:15;6.60;;;3.85;;
63817;SDS011;53093;55.092;73.476;2022-10-26T04:58:42;11.40;;;3.47;;
63817;SDS011;53093;55.092;73.476;2022-10-26T05:01:19;6.57;;;3.47;;
63817;SDS011;53093;55.092;73.476;2022-10-26T05:03:49;8.75;;;4.45;;
63817;SDS011;53093;55.092;73.476;2022-10-26T05:06:16;12.75;;;4.75;;
63817;SDS011;53093;55.092;73.476;2022-10-26T05:08:43;11.73;;;4.18;;
63817;SDS011;53093;55.092;73.476;2022-10-26T05:11:10;10.20;;;4.45;;
63817;SDS011;53093;55.092;73.476;2022-10-26T05:13:37;29.02;;;12.45;;
63817;SDS011;53093;55.092;73.476;2022-10-26T05:16:04;8.95;;;4.50;;
63817;SDS011;53093;55.092;73.476;2022-10-26T05:18:31;11.75;;;4.72;;
63817;SDS011;53093;55.092;73.476;2022-10-26T05:20:58;8.90;;;4.28;;
63817;SDS011;53093;55.092;73.476;2022-10-26T05:23:25;10.52;;;4.38;;
63817;SDS011;53093;55.092;73.476;2022-10-26T05:25:53;10.07;;;4.38;;
63817;SDS011;53093;55.092;73.476;2022-10-26T05:28:20;10.63;;;4.55;;
63817;SDS011;53093;55.092;73.476;2022-10-26T05:30:47;9.40;;;4.07;;
63817;SDS011;53093;55.092;73.476;2022-10-26T05:33:14;13.18;;;5.07;;
63817;SDS011;53093;55.092;73.476;2022-10-26T05:35:41;7.47;;;4.10;;
63817;SDS011;53093;55.092;73.476;2022-10-26T05:38:09;7.85;;;4.43;;
63817;SDS011;53093;55.092;73.476;2022-10-26T05:40:36;8.00;;;4.70;;
63817;SDS011;53093;55.092;73.476;2022-10-26T05:43:03;10.65;;;5.47;;
63817;SDS011;53093;55.092;73.476;2022-10-26T05:45:30;12.55;;;5.22;;
63817;SDS011;53093;55.092;73.476;2022-10-26T05:47:58;12.52;;;5.13;;
63817;SDS011;53093;55.092;73.476;2022-10-26T05:50:25;11.73;;;5.28;;
63817;SDS011;53093;55.092;73.476;2022-10-26T05:52:52;10.32;;;5.07;;
63817;SDS011;53093;55.092;73.476;2022-10-26T05:55:19;17.25;;;6.82;;
63817;SDS011;53093;55.092;73.476;2022-10-26T05:57:46;9.40;;;5.55;;
63817;SDS011;53093;55.092;73.476;2022-10-26T06:05:23;13.20;;;5.32;;
63817;SDS011;53093;55.092;73.476;2022-10-26T06:07:52;10.48;;;5.38;;
63817;SDS011;53093;55.092;73.476;2022-10-26T06:10:19;9.23;;;4.50;;
63817;SDS011;53093;55.092;73.476;2022-10-26T06:12:46;17.52;;;5.60;;
63817;SDS011;53093;55.092;73.476;2022-10-26T06:15:19;9.85;;;5.53;;
63817;SDS011;53093;55.092;73.476;2022-10-26T06:23:06;12.52;;;5.82;;
63817;SDS011;53093;55.092;73.476;2022-10-26T06:30:43;14.70;;;6.05;;
63817;SDS011;53093;55.092;73.476;2022-10-26T06:33:11;14.07;;;5.30;;
63817;SDS011;53093;55.092;73.476;2022-10-26T06:38:12;14.73;;;5.82;;
63817;SDS011;53093;55.092;73.476;2022-10-26T06:40:41;13.80;;;6.28;;
63817;SDS011;53093;55.092;73.476;2022-10-26T06:43:12;13.70;;;6.10;;
63817;SDS011;53093;55.092;73.476;2022-10-26T06:45:43;12.18;;;5.68;;
63817;SDS011;53093;55.092;73.476;2022-10-26T06:48:13;14.35;;;6.10;;
63817;SDS011;53093;55.092;73.476;2022-10-26T06:50:50;15.10;;;6.13;;
63817;SDS011;53093;55.092;73.476;2022-10-26T06:55:56;15.27;;;5.68;;
63817;SDS011;53093;55.092;73.476;2022-10-26T06:58:28;20.98;;;6.40;;
63817;SDS011;53093;55.092;73.476;2022-10-26T07:00:56;16.70;;;6.68;;
63817;SDS011;53093;55.092;73.476;2022-10-26T07:03:23;16.27;;;6.88;;
63817;SDS011;53093;55.092;73.476;2022-10-26T07:06:00;18.13;;;7.18;;
63817;SDS011;53093;55.092;73.476;2022-10-26T07:08:27;18.80;;;7.90;;
63817;SDS011;53093;55.092;73.476;2022-10-26T07:10:55;18.50;;;7.43;;
63817;SDS011;53093;55.092;73.476;2022-10-26T07:13:27;19.98;;;7.55;;
63817;SDS011;53093;55.092;73.476;2022-10-26T07:15:54;18.50;;;8.40;;
63817;SDS011;53093;55.092;73.476;2022-10-26T07:18:21;20.25;;;10.52;;
63817;SDS011;53093;55.092;73.476;2022-10-26T07:20:48;17.10;;;8.20;;
63817;SDS011;53093;55.092;73.476;2022-10-26T07:23:15;18.98;;;8.18;;
63817;SDS011;53093;55.092;73.476;2022-10-26T07:25:42;16.73;;;7.15;;
63817;SDS011;53093;55.092;73.476;2022-10-26T07:28:09;16.98;;;7.43;;
63817;SDS011;53093;55.092;73.476;2022-10-26T07:30:37;20.73;;;7.63;;
63817;SDS011;53093;55.092;73.476;2022-10-26T07:33:08;19.75;;;8.18;;
63817;SDS011;53093;55.092;73.476;2022-10-26T07:35:35;20.48;;;8.18;;
63817;SDS011;53093;55.092;73.476;2022-10-26T07:38:02;16.10;;;6.93;;
63817;SDS011;53093;55.092;73.476;2022-10-26T07:40:30;16.73;;;8.05;;
63817;SDS011;53093;55.092;73.476;2022-10-26T07:43:07;18.42;;;7.38;;
63817;SDS011;53093;55.092;73.476;2022-10-26T07:45:34;18.02;;;7.93;;
63817;SDS011;53093;55.092;73.476;2022-10-26T07:48:02;22.67;;;9.43;;
63817;SDS011;53093;55.092;73.476;2022-10-26T07:50:29;21.67;;;9.07;;
63817;SDS011;53093;55.092;73.476;2022-10-26T07:53:00;23.80;;;13.07;;
63817;SDS011;53093;55.092;73.476;2022-10-26T07:55:37;15.48;;;7.75;;
63817;SDS011;53093;55.092;73.476;2022-10-26T07:58:10;16.52;;;8.05;;
63817;SDS011;53093;55.092;73.476;2022-10-26T08:00:37;17.02;;;8.02;;
63817;SDS011;53093;55.092;73.476;2022-10-26T08:03:04;19.25;;;8.50;;
63817;SDS011;53093;55.092;73.476;2022-10-26T08:05:30;18.15;;;8.68;;
63817;SDS011;53093;55.092;73.476;2022-10-26T08:07:57;16.98;;;8.35;;
63817;SDS011;53093;55.092;73.476;2022-10-26T08:10:29;22.60;;;8.82;;
63817;SDS011;53093;55.092;73.476;2022-10-26T08:12:56;19.85;;;8.85;;
63817;SDS011;53093;55.092;73.476;2022-10-26T08:15:23;16.05;;;8.45;;
63817;SDS011;53093;55.092;73.476;2022-10-26T08:17:55;18.60;;;8.18;;
63817;SDS011;53093;55.092;73.476;2022-10-26T08:20:23;20.80;;;7.30;;
63817;SDS011;53093;55.092;73.476;2022-10-26T08:23:00;21.23;;;8.20;;
63817;SDS011;53093;55.092;73.476;2022-10-26T08:25:36;17.40;;;7.35;;
63817;SDS011;53093;55.092;73.476;2022-10-26T08:28:03;17.55;;;7.72;;
63817;SDS011;53093;55.092;73.476;2022-10-26T08:30:30;17.33;;;7.07;;
63817;SDS011;53093;55.092;73.476;2022-10-26T08:33:08;16.58;;;7.20;;
63817;SDS011;53093;55.092;73.476;2022-10-26T08:35:41;21.60;;;8.00;;
63817;SDS011;53093;55.092;73.476;2022-10-26T08:38:17;14.60;;;7.60;;
63817;SDS011;53093;55.092;73.476;2022-10-26T08:40:53;20.35;;;7.25;;
63817;SDS011;53093;55.092;73.476;2022-10-26T08:46:05;18.48;;;6.93;;
63817;SDS011;53093;55.092;73.476;2022-10-26T08:48:41;13.30;;;6.50;;
63817;SDS011;53093;55.092;73.476;2022-10-26T08:51:30;13.30;;;6.63;;
63817;SDS011;53093;55.092;73.476;2022-10-26T08:56:44;19.27;;;7.05;;
63817;SDS011;53093;55.092;73.476;2022-10-26T09:01:47;16.70;;;7.07;;
63817;SDS011;53093;55.092;73.476;2022-10-26T09:04:14;12.88;;;6.20;;
63817;SDS011;53093;55.092;73.476;2022-10-26T09:09:30;13.45;;;5.30;;
63817;SDS011;53093;55.092;73.476;2022-10-26T09:12:10;12.05;;;5.50;;
63817;SDS011;53093;55.092;73.476;2022-10-26T09:15:00;13.32;;;5.43;;
63817;SDS011;53093;55.092;73.476;2022-10-26T09:20:01;14.60;;;6.07;;
63817;SDS011;53093;55.092;73.476;2022-10-26T09:22:41;13.65;;;5.57;;
63817;SDS011;53093;55.092;73.476;2022-10-26T09:25:18;14.95;;;6.47;;
63817;SDS011;53093;55.092;73.476;2022-10-26T09:28:07;16.33;;;6.57;;
63817;SDS011;53093;55.092;73.476;2022-10-26T09:30:34;29.02;;;15.57;;
63817;SDS011;53093;55.092;73.476;2022-10-26T09:33:03;15.75;;;6.57;;
63817;SDS011;53093;55.092;73.476;2022-10-26T09:35:40;13.85;;;5.85;;
63817;SDS011;53093;55.092;73.476;2022-10-26T09:38:11;16.50;;;6.00;;
63817;SDS011;53093;55.092;73.476;2022-10-26T09:40:40;12.15;;;5.25;;
63817;SDS011;53093;55.092;73.476;2022-10-26T09:43:11;11.13;;;4.90;;
63817;SDS011;53093;55.092;73.476;2022-10-26T09:45:47;11.98;;;5.22;;
63817;SDS011;53093;55.092;73.476;2022-10-26T09:50:44;14.27;;;5.50;;
63817;SDS011;53093;55.092;73.476;2022-10-26T09:53:12;13.40;;;5.85;;
63817;SDS011;53093;55.092;73.476;2022-10-26T09:55:41;28.30;;;11.85;;
63817;SDS011;53093;55.092;73.476;2022-10-26T09:58:12;18.85;;;8.15;;
63817;SDS011;53093;55.092;73.476;2022-10-26T10:00:40;14.05;;;5.22;;
63817;SDS011;53093;55.092;73.476;2022-10-26T10:03:46;14.88;;;5.55;;
63817;SDS011;53093;55.092;73.476;2022-10-26T10:06:15;18.05;;;6.15;;
63817;SDS011;53093;55.092;73.476;2022-10-26T10:08:42;26.63;;;8.88;;
63817;SDS011;53093;55.092;73.476;2022-10-26T10:11:10;34.55;;;14.82;;
63817;SDS011;53093;55.092;73.476;2022-10-26T10:13:38;20.38;;;7.93;;
63817;SDS011;53093;55.092;73.476;2022-10-26T10:16:10;15.18;;;7.55;;
63817;SDS011;53093;55.092;73.476;2022-10-26T10:18:52;16.08;;;7.88;;
63817;SDS011;53093;55.092;73.476;2022-10-26T10:21:19;14.48;;;7.28;;
63817;SDS011;53093;55.092;73.476;2022-10-26T10:23:51;13.55;;;6.15;;
63817;SDS011;53093;55.092;73.476;2022-10-26T10:26:19;16.98;;;6.95;;
63817;SDS011;53093;55.092;73.476;2022-10-26T10:28:57;14.30;;;6.55;;
63817;SDS011;53093;55.092;73.476;2022-10-26T10:31:29;16.63;;;7.35;;
63817;SDS011;53093;55.092;73.476;2022-10-26T10:33:56;343.85;;;140.82;;
63817;SDS011;53093;55.092;73.476;2022-10-26T10:36:24;46.78;;;22.50;;
63817;SDS011;53093;55.092;73.476;2022-10-26T10:38:52;34.58;;;17.45;;
63817;SDS011;53093;55.092;73.476;2022-10-26T10:43:51;19.52;;;9.43;;
63817;SDS011;53093;55.092;73.476;2022-10-26T10:46:23;17.75;;;7.85;;
63817;SDS011;53093;55.092;73.476;2022-10-26T10:49:01;21.80;;;9.20;;
63817;SDS011;53093;55.092;73.476;2022-10-26T10:51:35;18.60;;;7.15;;
63817;SDS011;53093;55.092;73.476;2022-10-26T10:54:04;13.13;;;5.72;;
63817;SDS011;53093;55.092;73.476;2022-10-26T11:07:02;11.05;;;5.78;;
63817;SDS011;53093;55.092;73.476;2022-10-26T11:09:30;14.57;;;7.97;;
63817;SDS011;53093;55.092;73.476;2022-10-26T11:12:06;15.43;;;9.57;;
63817;SDS011;53093;55.092;73.476;2022-10-26T11:14:40;23.33;;;13.43;;
63817;SDS011;53093;55.092;73.476;2022-10-26T11:17:27;20.90;;;14.20;;
63817;SDS011;53093;55.092;73.476;2022-10-26T11:20:16;15.18;;;8.52;;
63817;SDS011;53093;55.092;73.476;2022-10-26T11:22:55;18.40;;;9.15;;
63817;SDS011;53093;55.092;73.476;2022-10-26T11:25:26;15.57;;;8.02;;
63817;SDS011;53093;55.092;73.476;2022-10-26T11:28:01;18.10;;;9.27;;
63817;SDS011;53093;55.092;73.476;2022-10-26T11:30:30;18.02;;;8.48;;
63817;SDS011;53093;55.092;73.476;2022-10-26T11:33:00;18.15;;;8.35;;
63817;SDS011;53093;55.092;73.476;2022-10-26T11:48:35;26.55;;;13.48;;
63817;SDS011;53093;55.092;73.476;2022-10-26T11:51:32;29.20;;;14.65;;
63817;SDS011;53093;55.092;73.476;2022-10-26T11:56:48;32.97;;;15.00;;
63817;SDS011;53093;55.092;73.476;2022-10-26T11:59:26;26.08;;;13.05;;
63817;SDS011;53093;55.092;73.476;2022-10-26T12:01:59;30.02;;;13.80;;
63817;SDS011;53093;55.092;73.476;2022-10-26T12:04:28;31.85;;;14.38;;
63817;SDS011;53093;55.092;73.476;2022-10-26T12:07:16;23.02;;;13.18;;
63817;SDS011;53093;55.092;73.476;2022-10-26T12:09:45;23.40;;;11.40;;
63817;SDS011;53093;55.092;73.476;2022-10-26T12:12:23;25.05;;;12.25;;
63817;SDS011;53093;55.092;73.476;2022-10-26T12:17:24;24.08;;;13.80;;
63817;SDS011;53093;55.092;73.476;2022-10-26T12:22:29;33.58;;;19.10;;
63817;SDS011;53093;55.092;73.476;2022-10-26T12:25:05;22.75;;;12.13;;
63817;SDS011;53093;55.092;73.476;2022-10-26T12:30:23;20.15;;;11.18;;
63817;SDS011;53093;55.092;73.476;2022-10-26T12:32:52;20.50;;;10.57;;
63817;SDS011;53093;55.092;73.476;2022-10-26T12:35:32;20.75;;;13.55;;
63817;SDS011;53093;55.092;73.476;2022-10-26T12:38:53;19.08;;;10.45;;
63817;SDS011;53093;55.092;73.476;2022-10-26T12:40:48;17.67;;;9.60;;
63817;SDS011;53093;55.092;73.476;2022-10-26T12:43:42;17.63;;;9.52;;
63817;SDS011;53093;55.092;73.476;2022-10-26T12:48:45;17.20;;;10.57;;
63817;SDS011;53093;55.092;73.476;2022-10-26T12:54:01;17.13;;;8.88;;
63817;SDS011;53093;55.092;73.476;2022-10-26T12:56:41;19.38;;;9.55;;
63817;SDS011;53093;55.092;73.476;2022-10-26T13:04:24;21.80;;;10.20;;
63817;SDS011;53093;55.092;73.476;2022-10-26T13:07:08;18.15;;;8.85;;
63817;SDS011;53093;55.092;73.476;2022-10-26T13:09:37;20.98;;;10.05;;
63817;SDS011;53093;55.092;73.476;2022-10-26T13:12:04;24.30;;;13.27;;
63817;SDS011;53093;55.092;73.476;2022-10-26T13:14:38;26.88;;;13.50;;
63817;SDS011;53093;55.092;73.476;2022-10-26T13:17:20;32.97;;;15.88;;
63817;SDS011;53093;55.092;73.476;2022-10-26T13:19:49;34.45;;;16.17;;
63817;SDS011;53093;55.092;73.476;2022-10-26T13:22:20;41.75;;;21.27;;
63817;SDS011;53093;55.092;73.476;2022-10-26T13:25:03;48.53;;;21.23;;
63817;SDS011;53093;55.092;73.476;2022-10-26T13:32:40;64.55;;;32.08;;
63817;SDS011;53093;55.092;73.476;2022-10-26T13:35:11;82.45;;;36.33;;
63817;SDS011;53093;55.092;73.476;2022-10-26T13:37:45;84.20;;;38.67;;
63817;SDS011;53093;55.092;73.476;2022-10-26T13:40:16;101.03;;;41.50;;
63817;SDS011;53093;55.092;73.476;2022-10-26T13:42:49;100.15;;;44.88;;
63817;SDS011;53093;55.092;73.476;2022-10-26T13:45:24;100.85;;;43.45;;
63817;SDS011;53093;55.092;73.476;2022-10-26T13:50:47;106.15;;;46.38;;
63817;SDS011;53093;55.092;73.476;2022-10-26T13:53:17;114.68;;;50.30;;
63817;SDS011;53093;55.092;73.476;2022-10-26T13:55:50;105.97;;;48.53;;
63817;SDS011;53093;55.092;73.476;2022-10-26T13:58:27;103.05;;;43.97;;
63817;SDS011;53093;55.092;73.476;2022-10-26T14:01:09;111.63;;;49.25;;
63817;SDS011;53093;55.092;73.476;2022-10-26T14:03:37;118.05;;;50.50;;
63817;SDS011;53093;55.092;73.476;2022-10-26T14:06:05;113.07;;;47.95;;
63817;SDS011;53093;55.092;73.476;2022-10-26T14:08:37;110.75;;;46.22;;
63817;SDS011;53093;55.092;73.476;2022-10-26T14:11:06;109.07;;;45.95;;
63817;SDS011;53093;55.092;73.476;2022-10-26T14:13:36;114.25;;;49.08;;
63817;SDS011;53093;55.092;73.476;2022-10-26T14:16:05;103.35;;;43.97;;
63817;SDS011;53093;55.092;73.476;2022-10-26T14:18:33;117.47;;;46.53;;
63817;SDS011;53093;55.092;73.476;2022-10-26T14:21:06;109.63;;;46.60;;
63817;SDS011;53093;55.092;73.476;2022-10-26T14:23:48;97.72;;;43.80;;
63817;SDS011;53093;55.092;73.476;2022-10-26T14:26:25;105.43;;;44.95;;
63817;SDS011;53093;55.092;73.476;2022-10-26T14:28:54;101.40;;;47.83;;
63817;SDS011;53093;55.092;73.476;2022-10-26T14:31:31;90.60;;;40.97;;
63817;SDS011;53093;55.092;73.476;2022-10-26T14:33:59;104.93;;;47.10;;
63817;SDS011;53093;55.092;73.476;2022-10-26T14:36:51;93.57;;;40.75;;
63817;SDS011;53093;55.092;73.476;2022-10-26T14:41:46;90.95;;;40.92;;
63817;SDS011;53093;55.092;73.476;2022-10-26T14:44:18;96.88;;;46.10;;
63817;SDS011;53093;55.092;73.476;2022-10-26T14:46:45;103.05;;;46.53;;
63817;SDS011;53093;55.092;73.476;2022-10-26T14:49:17;90.60;;;45.45;;
63817;SDS011;53093;55.092;73.476;2022-10-26T14:51:57;90.03;;;41.50;;
63817;SDS011;53093;55.092;73.476;2022-10-26T14:54:26;94.68;;;45.17;;
63817;SDS011;53093;55.092;73.476;2022-10-26T14:56:53;93.25;;;45.80;;
63817;SDS011;53093;55.092;73.476;2022-10-26T15:04:39;95.32;;;45.30;;
63817;SDS011;53093;55.092;73.476;2022-10-26T15:09:44;89.65;;;38.95;;
63817;SDS011;53093;55.092;73.476;2022-10-26T15:17:38;70.35;;;29.83;;
63817;SDS011;53093;55.092;73.476;2022-10-26T15:20:06;69.03;;;30.98;;
63817;SDS011;53093;55.092;73.476;2022-10-26T15:22:50;59.95;;;26.50;;
63817;SDS011;53093;55.092;73.476;2022-10-26T15:25:23;66.35;;;29.10;;
63817;SDS011;53093;55.092;73.476;2022-10-26T15:30:59;64.75;;;26.35;;
63817;SDS011;53093;55.092;73.476;2022-10-26T15:33:26;63.38;;;28.88;;
63817;SDS011;53093;55.092;73.476;2022-10-26T15:38:34;63.60;;;27.88;;
63817;SDS011;53093;55.092;73.476;2022-10-26T15:41:22;50.65;;;23.23;;
63817;SDS011;53093;55.092;73.476;2022-10-26T15:43:50;56.08;;;25.17;;
63817;SDS011;53093;55.092;73.476;2022-10-26T15:46:31;50.80;;;24.25;;
63817;SDS011;53093;55.092;73.476;2022-10-26T15:48:59;56.90;;;25.15;;
63817;SDS011;53093;55.092;73.476;2022-10-26T15:51:30;54.08;;;26.83;;
63817;SDS011;53093;55.092;73.476;2022-10-26T15:54:08;54.60;;;24.00;;
63817;SDS011;53093;55.092;73.476;2022-10-26T15:56:39;56.67;;;25.10;;
63817;SDS011;53093;55.092;73.476;2022-10-26T15:59:16;63.65;;;28.33;;
63817;SDS011;53093;55.092;73.476;2022-10-26T16:01:51;60.28;;;26.23;;
63817;SDS011;53093;55.092;73.476;2022-10-26T16:04:18;67.28;;;33.20;;
63817;SDS011;53093;55.092;73.476;2022-10-26T16:06:55;58.00;;;26.80;;
63817;SDS011;53093;55.092;73.476;2022-10-26T16:09:32;62.65;;;28.30;;
63817;SDS011;53093;55.092;73.476;2022-10-26T16:11:58;59.17;;;28.23;;
63817;SDS011;53093;55.092;73.476;2022-10-26T16:14:25;59.50;;;26.77;;
63817;SDS011;53093;55.092;73.476;2022-10-26T16:16:53;50.38;;;27.30;;
63817;SDS011;53093;55.092;73.476;2022-10-26T16:19:20;53.40;;;26.58;;
63817;SDS011;53093;55.092;73.476;2022-10-26T16:21:50;57.33;;;27.08;;
63817;SDS011;53093;55.092;73.476;2022-10-26T16:24:17;52.47;;;26.08;;
63817;SDS011;53093;55.092;73.476;2022-10-26T16:26:44;52.92;;;27.45;;
63817;SDS011;53093;55.092;73.476;2022-10-26T16:29:12;46.05;;;22.58;;
63817;SDS011;53093;55.092;73.476;2022-10-26T16:31:39;43.80;;;22.95;;
63817;SDS011;53093;55.092;73.476;2022-10-26T16:34:06;49.22;;;21.42;;
63817;SDS011;53093;55.092;73.476;2022-10-26T16:36:33;42.45;;;23.60;;
63817;SDS011;53093;55.092;73.476;2022-10-26T16:39:00;43.17;;;22.92;;
63817;SDS011;53093;55.092;73.476;2022-10-26T16:41:27;41.33;;;21.50;;
63817;SDS011;53093;55.092;73.476;2022-10-26T16:43:54;42.63;;;20.83;;
63817;SDS011;53093;55.092;73.476;2022-10-26T16:46:21;38.45;;;17.98;;
63817;SDS011;53093;55.092;73.476;2022-10-26T16:48:49;33.42;;;15.98;;
63817;SDS011;53093;55.092;73.476;2022-10-26T16:51:20;34.58;;;15.88;;
63817;SDS011;53093;55.092;73.476;2022-10-26T16:53:48;29.55;;;14.05;;
63817;SDS011;53093;55.092;73.476;2022-10-26T16:56:26;32.33;;;17.15;;
63817;SDS011;53093;55.092;73.476;2022-10-26T16:58:57;32.20;;;15.95;;